sensor_id;sensor_type;location;lat;lon;timestamp;temperature;humidity
39889;DHT22;25563;50.844;4.308;2024-02-28T00:00:05;7.20;99.90
39889;DHT22;25563;50.844;4.308;2024-02-28T00:02:31;7.20;99.90
39889;DHT22;25563;50.844;4.308;2024-02-28T00:04:57;7.10;99.90
39889;DHT22;25563;50.844;4.308;2024-02-28T00:07:25;7.10;99.90
39889;DHT22;25563;50.844;4.308;2024-02-28T00:09:51;7.00;99.90
39889;DHT22;25563;50.844;4.308;2024-02-28T00:12:17;7.00;99.90
39889;DHT22;25563;50.844;4.308;2024-02-28T00:14:43;6.90;99.90
39889;DHT22;25563;50.844;4.308;2024-02-28T00:17:08;6.90;99.90
39889;DHT22;25563;50.844;4.308;2024-02-28T00:19:34;6.90;99.90
39889;DHT22;25563;50.844;4.308;2024-02-28T00:22:00;6.90;99.90
39889;DHT22;25563;50.844;4.308;2024-02-28T00:24:27;6.80;99.90
39889;DHT22;25563;50.844;4.308;2024-02-28T00:26:53;6.80;99.90
39889;DHT22;25563;50.844;4.308;2024-02-28T00:29:19;6.80;99.90
39889;DHT22;25563;50.844;4.308;2024-02-28T00:31:46;6.70;99.90
39889;DHT22;25563;50.844;4.308;2024-02-28T00:34:11;6.70;99.90
39889;DHT22;25563;50.844;4.308;2024-02-28T00:36:37;6.60;99.90
39889;DHT22;25563;50.844;4.308;2024-02-28T00:39:03;6.60;99.90
39889;DHT22;25563;50.844;4.308;2024-02-28T00:41:29;6.80;99.90
39889;DHT22;25563;50.844;4.308;2024-02-28T00:43:55;6.70;99.90
39889;DHT22;25563;50.844;4.308;2024-02-28T00:46:21;6.60;99.90
39889;DHT22;25563;50.844;4.308;2024-02-28T00:48:47;6.60;99.90
39889;DHT22;25563;50.844;4.308;2024-02-28T00:51:16;6.60;99.90
39889;DHT22;25563;50.844;4.308;2024-02-28T00:53:41;6.60;99.90
39889;DHT22;25563;50.844;4.308;2024-02-28T00:56:08;6.50;99.90
39889;DHT22;25563;50.844;4.308;2024-02-28T00:58:34;6.50;99.90
39889;DHT22;25563;50.844;4.308;2024-02-28T01:01:00;6.50;99.90
39889;DHT22;25563;50.844;4.308;2024-02-28T01:03:26;6.40;99.90
39889;DHT22;25563;50.844;4.308;2024-02-28T01:05:52;6.40;99.90
39889;DHT22;25563;50.844;4.308;2024-02-28T01:08:18;5.30;99.90
39889;DHT22;25563;50.844;4.308;2024-02-28T01:10:45;6.30;99.90
39889;DHT22;25563;50.844;4.308;2024-02-28T01:13:10;5.80;99.90
39889;DHT22;25563;50.844;4.308;2024-02-28T01:15:39;6.30;99.90
39889;DHT22;25563;50.844;4.308;2024-02-28T01:18:04;6.50;99.90
39889;DHT22;25563;50.844;4.308;2024-02-28T01:20:31;6.60;99.90
39889;DHT22;25563;50.844;4.308;2024-02-28T01:22:58;6.40;99.90
39889;DHT22;25563;50.844;4.308;2024-02-28T01:25:25;6.30;99.90
39889;DHT22;25563;50.844;4.308;2024-02-28T01:27:51;6.30;99.90
39889;DHT22;25563;50.844;4.308;2024-02-28T01:30:17;6.10;99.90
39889;DHT22;25563;50.844;4.308;2024-02-28T01:32:42;6.10;99.90
39889;DHT22;25563;50.844;4.308;2024-02-28T01:35:09;6.10;99.90
39889;DHT22;25563;50.844;4.308;2024-02-28T01:37:36;6.00;99.90
39889;DHT22;25563;50.844;4.308;2024-02-28T01:40:01;6.00;99.90
39889;DHT22;25563;50.844;4.308;2024-02-28T01:42:30;6.10;99.90
39889;DHT22;25563;50.844;4.308;2024-02-28T01:44:56;6.10;99.90
39889;DHT22;25563;50.844;4.308;2024-02-28T01:47:23;5.10;99.90
39889;DHT22;25563;50.844;4.308;2024-02-28T01:49:50;6.00;99.90
39889;DHT22;25563;50.844;4.308;2024-02-28T01:52:20;6.00;99.90
39889;DHT22;25563;50.844;4.308;2024-02-28T01:54:46;6.00;99.90
39889;DHT22;25563;50.844;4.308;2024-02-28T01:57:12;6.10;99.90
39889;DHT22;25563;50.844;4.308;2024-02-28T01:59:40;5.90;99.90
39889;DHT22;25563;50.844;4.308;2024-02-28T02:02:06;5.90;99.90
39889;DHT22;25563;50.844;4.308;2024-02-28T02:04:35;5.90;99.90
39889;DHT22;25563;50.844;4.308;2024-02-28T02:07:01;5.90;99.90
39889;DHT22;25563;50.844;4.308;2024-02-28T02:09:26;5.90;99.90
39889;DHT22;25563;50.844;4.308;2024-02-28T02:11:52;5.90;99.90
39889;DHT22;25563;50.844;4.308;2024-02-28T02:14:18;5.70;99.90
39889;DHT22;25563;50.844;4.308;2024-02-28T02:16:44;5.70;99.90
39889;DHT22;25563;50.844;4.308;2024-02-28T02:19:10;5.60;99.90
39889;DHT22;25563;50.844;4.308;2024-02-28T02:21:48;5.80;99.90
39889;DHT22;25563;50.844;4.308;2024-02-28T02:24:17;5.70;99.90
39889;DHT22;25563;50.844;4.308;2024-02-28T02:26:42;5.70;99.90
39889;DHT22;25563;50.844;4.308;2024-02-28T02:29:11;5.60;99.90
39889;DHT22;25563;50.844;4.308;2024-02-28T02:31:37;5.60;99.90
39889;DHT22;25563;50.844;4.308;2024-02-28T02:34:03;5.80;99.90
39889;DHT22;25563;50.844;4.308;2024-02-28T02:36:29;5.70;99.90
39889;DHT22;25563;50.844;4.308;2024-02-28T02:38:58;5.70;99.90
39889;DHT22;25563;50.844;4.308;2024-02-28T02:41:24;4.60;99.90
39889;DHT22;25563;50.844;4.308;2024-02-28T02:43:52;5.60;99.90
39889;DHT22;25563;50.844;4.308;2024-02-28T02:46:20;5.50;99.90
39889;DHT22;25563;50.844;4.308;2024-02-28T02:48:46;5.50;99.90
39889;DHT22;25563;50.844;4.308;2024-02-28T02:51:12;5.50;99.90
39889;DHT22;25563;50.844;4.308;2024-02-28T02:53:37;5.60;99.90
39889;DHT22;25563;50.844;4.308;2024-02-28T02:56:06;5.50;99.90
39889;DHT22;25563;50.844;4.308;2024-02-28T02:58:32;5.50;99.90
39889;DHT22;25563;50.844;4.308;2024-02-28T03:00:58;5.50;99.90
39889;DHT22;25563;50.844;4.308;2024-02-28T03:03:24;5.50;99.90
39889;DHT22;25563;50.844;4.308;2024-02-28T03:05:53;5.60;99.90
39889;DHT22;25563;50.844;4.308;2024-02-28T03:08:18;5.50;99.90
39889;DHT22;25563;50.844;4.308;2024-02-28T03:10:47;5.40;99.90
39889;DHT22;25563;50.844;4.308;2024-02-28T03:13:12;5.40;99.90
39889;DHT22;25563;50.844;4.308;2024-02-28T03:15:38;4.20;99.90
39889;DHT22;25563;50.844;4.308;2024-02-28T03:18:04;5.60;99.90
39889;DHT22;25563;50.844;4.308;2024-02-28T03:20:30;5.60;99.90
39889;DHT22;25563;50.844;4.308;2024-02-28T03:22:56;5.50;99.90
39889;DHT22;25563;50.844;4.308;2024-02-28T03:25:22;5.50;99.90
39889;DHT22;25563;50.844;4.308;2024-02-28T03:27:47;5.50;99.90
39889;DHT22;25563;50.844;4.308;2024-02-28T03:30:13;5.30;99.90
39889;DHT22;25563;50.844;4.308;2024-02-28T03:32:39;4.70;99.90
39889;DHT22;25563;50.844;4.308;2024-02-28T03:35:05;5.20;99.90
39889;DHT22;25563;50.844;4.308;2024-02-28T03:37:34;5.20;99.90
39889;DHT22;25563;50.844;4.308;2024-02-28T03:39:59;5.20;99.90
39889;DHT22;25563;50.844;4.308;2024-02-28T03:42:26;5.30;99.90
39889;DHT22;25563;50.844;4.308;2024-02-28T03:44:52;5.40;99.90
39889;DHT22;25563;50.844;4.308;2024-02-28T03:47:18;5.30;99.90
39889;DHT22;25563;50.844;4.308;2024-02-28T03:49:44;5.30;99.90
39889;DHT22;25563;50.844;4.308;2024-02-28T03:52:10;5.30;99.90
39889;DHT22;25563;50.844;4.308;2024-02-28T03:54:35;5.30;99.90
39889;DHT22;25563;50.844;4.308;2024-02-28T03:57:01;5.30;99.90
39889;DHT22;25563;50.844;4.308;2024-02-28T03:59:27;5.30;99.90
39889;DHT22;25563;50.844;4.308;2024-02-28T04:01:54;5.30;99.90
39889;DHT22;25563;50.844;4.308;2024-02-28T04:04:20;5.20;99.90
39889;DHT22;25563;50.844;4.308;2024-02-28T04:06:46;5.20;99.90
39889;DHT22;25563;50.844;4.308;2024-02-28T04:09:11;5.20;99.90
39889;DHT22;25563;50.844;4.308;2024-02-28T04:11:37;5.30;99.90
39889;DHT22;25563;50.844;4.308;2024-02-28T04:14:03;5.30;99.90
39889;DHT22;25563;50.844;4.308;2024-02-28T04:16:29;5.40;99.90
39889;DHT22;25563;50.844;4.308;2024-02-28T04:18:55;5.30;99.90
39889;DHT22;25563;50.844;4.308;2024-02-28T04:21:20;5.10;99.90
39889;DHT22;25563;50.844;4.308;2024-02-28T04:23:47;5.00;99.90
39889;DHT22;25563;50.844;4.308;2024-02-28T04:26:12;5.00;99.90
39889;DHT22;25563;50.844;4.308;2024-02-28T04:28:38;5.00;99.90
39889;DHT22;25563;50.844;4.308;2024-02-28T04:31:04;5.00;99.90
39889;DHT22;25563;50.844;4.308;2024-02-28T04:33:30;4.90;99.90
39889;DHT22;25563;50.844;4.308;2024-02-28T04:35:55;4.90;99.90
39889;DHT22;25563;50.844;4.308;2024-02-28T04:38:21;5.00;99.90
39889;DHT22;25563;50.844;4.308;2024-02-28T04:40:47;5.00;99.90
39889;DHT22;25563;50.844;4.308;2024-02-28T04:43:12;5.10;99.90
39889;DHT22;25563;50.844;4.308;2024-02-28T04:45:38;5.10;99.90
39889;DHT22;25563;50.844;4.308;2024-02-28T04:48:04;5.00;99.90
39889;DHT22;25563;50.844;4.308;2024-02-28T04:50:30;5.00;99.90
39889;DHT22;25563;50.844;4.308;2024-02-28T04:52:56;5.00;99.90
39889;DHT22;25563;50.844;4.308;2024-02-28T04:55:21;5.00;99.90
39889;DHT22;25563;50.844;4.308;2024-02-28T04:57:47;5.00;99.90
39889;DHT22;25563;50.844;4.308;2024-02-28T05:00:13;5.10;99.90
39889;DHT22;25563;50.844;4.308;2024-02-28T05:02:39;5.10;99.90
39889;DHT22;25563;50.844;4.308;2024-02-28T05:05:05;5.20;99.90
39889;DHT22;25563;50.844;4.308;2024-02-28T05:07:31;5.20;99.90
39889;DHT22;25563;50.844;4.308;2024-02-28T05:09:57;5.20;99.90
39889;DHT22;25563;50.844;4.308;2024-02-28T05:12:23;5.20;99.90
39889;DHT22;25563;50.844;4.308;2024-02-28T05:14:48;5.30;99.90
39889;DHT22;25563;50.844;4.308;2024-02-28T05:17:14;5.50;99.90
39889;DHT22;25563;50.844;4.308;2024-02-28T05:19:42;5.60;99.90
39889;DHT22;25563;50.844;4.308;2024-02-28T05:22:08;5.60;99.90
39889;DHT22;25563;50.844;4.308;2024-02-28T05:24:34;5.60;99.90
39889;DHT22;25563;50.844;4.308;2024-02-28T05:27:00;5.60;99.90
39889;DHT22;25563;50.844;4.308;2024-02-28T05:29:26;5.80;99.90
39889;DHT22;25563;50.844;4.308;2024-02-28T05:31:52;5.90;99.90
39889;DHT22;25563;50.844;4.308;2024-02-28T05:34:18;5.90;99.90
39889;DHT22;25563;50.844;4.308;2024-02-28T05:36:46;6.00;99.90
39889;DHT22;25563;50.844;4.308;2024-02-28T05:39:12;6.10;99.90
39889;DHT22;25563;50.844;4.308;2024-02-28T05:41:38;6.10;99.90
39889;DHT22;25563;50.844;4.308;2024-02-28T05:44:05;6.10;99.90
39889;DHT22;25563;50.844;4.308;2024-02-28T05:46:31;6.00;99.90
39889;DHT22;25563;50.844;4.308;2024-02-28T05:48:57;6.10;99.90
39889;DHT22;25563;50.844;4.308;2024-02-28T05:51:23;6.00;99.90
39889;DHT22;25563;50.844;4.308;2024-02-28T05:53:49;5.90;99.90
39889;DHT22;25563;50.844;4.308;2024-02-28T05:56:15;5.90;99.90
39889;DHT22;25563;50.844;4.308;2024-02-28T05:58:47;5.90;99.90
39889;DHT22;25563;50.844;4.308;2024-02-28T06:01:16;6.00;99.90
39889;DHT22;25563;50.844;4.308;2024-02-28T06:03:46;6.00;99.90
39889;DHT22;25563;50.844;4.308;2024-02-28T06:06:12;6.10;99.90
39889;DHT22;25563;50.844;4.308;2024-02-28T06:08:40;6.20;99.90
39889;DHT22;25563;50.844;4.308;2024-02-28T06:11:06;6.20;99.90
39889;DHT22;25563;50.844;4.308;2024-02-28T06:13:32;5.80;99.90
39889;DHT22;25563;50.844;4.308;2024-02-28T06:15:59;6.40;99.90
39889;DHT22;25563;50.844;4.308;2024-02-28T06:18:28;6.50;99.90
39889;DHT22;25563;50.844;4.308;2024-02-28T06:20:54;6.50;99.90
39889;DHT22;25563;50.844;4.308;2024-02-28T06:23:23;6.60;99.90
39889;DHT22;25563;50.844;4.308;2024-02-28T06:25:50;6.70;99.90
39889;DHT22;25563;50.844;4.308;2024-02-28T06:28:16;6.80;99.90
39889;DHT22;25563;50.844;4.308;2024-02-28T06:30:43;6.90;99.90
39889;DHT22;25563;50.844;4.308;2024-02-28T06:33:09;6.80;99.90
39889;DHT22;25563;50.844;4.308;2024-02-28T06:35:36;6.80;99.90
39889;DHT22;25563;50.844;4.308;2024-02-28T06:38:03;6.70;99.90
39889;DHT22;25563;50.844;4.308;2024-02-28T06:40:29;6.70;99.90
39889;DHT22;25563;50.844;4.308;2024-02-28T06:42:55;6.70;99.90
39889;DHT22;25563;50.844;4.308;2024-02-28T06:45:21;6.70;99.90
39889;DHT22;25563;50.844;4.308;2024-02-28T06:47:47;6.80;99.90
39889;DHT22;25563;50.844;4.308;2024-02-28T06:50:14;6.90;99.90
39889;DHT22;25563;50.844;4.308;2024-02-28T06:52:41;7.00;99.90
39889;DHT22;25563;50.844;4.308;2024-02-28T06:55:06;7.00;99.90
39889;DHT22;25563;50.844;4.308;2024-02-28T06:57:36;7.00;99.90
39889;DHT22;25563;50.844;4.308;2024-02-28T07:00:03;7.10;99.90
39889;DHT22;25563;50.844;4.308;2024-02-28T07:02:30;7.20;99.90
39889;DHT22;25563;50.844;4.308;2024-02-28T07:04:56;7.30;99.90
39889;DHT22;25563;50.844;4.308;2024-02-28T07:07:21;7.40;99.90
39889;DHT22;25563;50.844;4.308;2024-02-28T07:09:48;7.30;99.90
39889;DHT22;25563;50.844;4.308;2024-02-28T07:12:14;7.30;99.90
39889;DHT22;25563;50.844;4.308;2024-02-28T07:14:40;7.40;99.90
39889;DHT22;25563;50.844;4.308;2024-02-28T07:17:05;7.50;99.90
39889;DHT22;25563;50.844;4.308;2024-02-28T07:19:32;7.50;99.90
39889;DHT22;25563;50.844;4.308;2024-02-28T07:21:58;7.60;99.90
39889;DHT22;25563;50.844;4.308;2024-02-28T07:24:25;7.80;99.90
39889;DHT22;25563;50.844;4.308;2024-02-28T07:26:50;7.90;99.90
39889;DHT22;25563;50.844;4.308;2024-02-28T07:29:16;8.10;99.90
39889;DHT22;25563;50.844;4.308;2024-02-28T07:31:42;8.10;99.90
39889;DHT22;25563;50.844;4.308;2024-02-28T07:34:08;8.10;99.90
39889;DHT22;25563;50.844;4.308;2024-02-28T07:36:33;8.10;99.90
39889;DHT22;25563;50.844;4.308;2024-02-28T07:38:59;8.20;99.90
39889;DHT22;25563;50.844;4.308;2024-02-28T07:41:25;8.30;99.90
39889;DHT22;25563;50.844;4.308;2024-02-28T07:43:52;8.30;99.90
39889;DHT22;25563;50.844;4.308;2024-02-28T07:46:18;8.40;99.90
39889;DHT22;25563;50.844;4.308;2024-02-28T07:48:44;8.60;99.90
39889;DHT22;25563;50.844;4.308;2024-02-28T07:51:10;8.70;99.90
39889;DHT22;25563;50.844;4.308;2024-02-28T07:53:37;8.70;99.90
39889;DHT22;25563;50.844;4.308;2024-02-28T07:56:03;8.80;99.90
39889;DHT22;25563;50.844;4.308;2024-02-28T07:58:29;8.80;99.90
39889;DHT22;25563;50.844;4.308;2024-02-28T08:00:55;8.80;99.90
39889;DHT22;25563;50.844;4.308;2024-02-28T08:03:21;8.80;99.90
39889;DHT22;25563;50.844;4.308;2024-02-28T08:05:50;8.40;99.90
39889;DHT22;25563;50.844;4.308;2024-02-28T08:08:16;8.90;99.90
39889;DHT22;25563;50.844;4.308;2024-02-28T08:10:48;9.00;99.90
39889;DHT22;25563;50.844;4.308;2024-02-28T08:13:14;9.10;99.90
39889;DHT22;25563;50.844;4.308;2024-02-28T08:15:40;9.00;99.90
39889;DHT22;25563;50.844;4.308;2024-02-28T08:18:08;9.10;99.90
39889;DHT22;25563;50.844;4.308;2024-02-28T08:20:37;9.30;99.90
39889;DHT22;25563;50.844;4.308;2024-02-28T08:23:05;9.40;99.90
39889;DHT22;25563;50.844;4.308;2024-02-28T08:25:31;9.50;99.90
39889;DHT22;25563;50.844;4.308;2024-02-28T08:27:57;9.60;99.90
39889;DHT22;25563;50.844;4.308;2024-02-28T08:30:23;9.50;99.90
39889;DHT22;25563;50.844;4.308;2024-02-28T08:32:48;9.50;99.90
39889;DHT22;25563;50.844;4.308;2024-02-28T08:35:14;9.50;99.90
39889;DHT22;25563;50.844;4.308;2024-02-28T08:37:42;9.60;99.90
39889;DHT22;25563;50.844;4.308;2024-02-28T08:40:08;9.70;99.90
39889;DHT22;25563;50.844;4.308;2024-02-28T08:42:35;9.70;99.90
39889;DHT22;25563;50.844;4.308;2024-02-28T08:45:02;9.70;99.90
39889;DHT22;25563;50.844;4.308;2024-02-28T08:47:29;9.70;99.90
39889;DHT22;25563;50.844;4.308;2024-02-28T08:49:56;9.50;99.90
39889;DHT22;25563;50.844;4.308;2024-02-28T08:52:22;9.40;99.90
39889;DHT22;25563;50.844;4.308;2024-02-28T08:54:48;9.40;99.90
39889;DHT22;25563;50.844;4.308;2024-02-28T08:57:14;9.30;99.90
39889;DHT22;25563;50.844;4.308;2024-02-28T08:59:40;9.40;99.90
39889;DHT22;25563;50.844;4.308;2024-02-28T09:02:10;10.20;99.90
39889;DHT22;25563;50.844;4.308;2024-02-28T09:04:49;9.20;99.90
39889;DHT22;25563;50.844;4.308;2024-02-28T09:07:29;8.50;99.90
39889;DHT22;25563;50.844;4.308;2024-02-28T09:10:24;9.70;99.90
39889;DHT22;25563;50.844;4.308;2024-02-28T09:16:43;9.80;99.90
39889;DHT22;25563;50.844;4.308;2024-02-28T09:19:10;9.70;99.90
39889;DHT22;25563;50.844;4.308;2024-02-28T09:21:36;9.80;99.90
39889;DHT22;25563;50.844;4.308;2024-02-28T09:24:07;9.80;99.90
39889;DHT22;25563;50.844;4.308;2024-02-28T09:26:34;9.70;99.90
39889;DHT22;25563;50.844;4.308;2024-02-28T09:29:03;9.70;99.90
39889;DHT22;25563;50.844;4.308;2024-02-28T09:31:29;9.70;99.90
39889;DHT22;25563;50.844;4.308;2024-02-28T09:33:56;9.80;99.90
39889;DHT22;25563;50.844;4.308;2024-02-28T09:36:23;10.00;99.90
39889;DHT22;25563;50.844;4.308;2024-02-28T09:38:50;10.10;99.90
39889;DHT22;25563;50.844;4.308;2024-02-28T09:41:17;10.20;99.90
39889;DHT22;25563;50.844;4.308;2024-02-28T09:47:10;10.30;99.90
39889;DHT22;25563;50.844;4.308;2024-02-28T09:49:37;10.40;99.90
39889;DHT22;25563;50.844;4.308;2024-02-28T09:52:03;10.50;99.90
39889;DHT22;25563;50.844;4.308;2024-02-28T09:54:29;10.60;99.90
39889;DHT22;25563;50.844;4.308;2024-02-28T09:56:55;10.80;99.90
39889;DHT22;25563;50.844;4.308;2024-02-28T09:59:23;10.90;99.90
39889;DHT22;25563;50.844;4.308;2024-02-28T10:01:55;10.90;99.90
39889;DHT22;25563;50.844;4.308;2024-02-28T10:04:23;10.90;99.90
39889;DHT22;25563;50.844;4.308;2024-02-28T10:06:52;11.10;99.90
39889;DHT22;25563;50.844;4.308;2024-02-28T10:09:18;11.30;99.90
39889;DHT22;25563;50.844;4.308;2024-02-28T10:11:45;11.40;99.90
39889;DHT22;25563;50.844;4.308;2024-02-28T10:14:30;11.40;99.90
39889;DHT22;25563;50.844;4.308;2024-02-28T10:16:56;11.30;99.90
39889;DHT22;25563;50.844;4.308;2024-02-28T10:19:22;11.20;99.90
39889;DHT22;25563;50.844;4.308;2024-02-28T10:21:49;11.20;99.90
39889;DHT22;25563;50.844;4.308;2024-02-28T10:24:16;11.40;99.90
39889;DHT22;25563;50.844;4.308;2024-02-28T10:26:47;11.60;99.90
39889;DHT22;25563;50.844;4.308;2024-02-28T10:29:26;11.60;99.90
39889;DHT22;25563;50.844;4.308;2024-02-28T10:31:56;11.50;99.90
39889;DHT22;25563;50.844;4.308;2024-02-28T10:34:23;11.60;99.90
39889;DHT22;25563;50.844;4.308;2024-02-28T10:36:49;11.50;99.90
39889;DHT22;25563;50.844;4.308;2024-02-28T10:39:15;11.50;99.90
39889;DHT22;25563;50.844;4.308;2024-02-28T10:41:42;11.60;99.90
39889;DHT22;25563;50.844;4.308;2024-02-28T10:44:09;11.70;99.90
39889;DHT22;25563;50.844;4.308;2024-02-28T10:46:38;11.90;99.90
39889;DHT22;25563;50.844;4.308;2024-02-28T10:49:24;11.90;99.90
39889;DHT22;25563;50.844;4.308;2024-02-28T10:51:51;12.00;99.90
39889;DHT22;25563;50.844;4.308;2024-02-28T10:54:21;12.20;99.90
39889;DHT22;25563;50.844;4.308;2024-02-28T10:56:51;12.30;99.90
39889;DHT22;25563;50.844;4.308;2024-02-28T10:59:19;12.30;99.90
39889;DHT22;25563;50.844;4.308;2024-02-28T11:01:46;12.30;99.90
39889;DHT22;25563;50.844;4.308;2024-02-28T11:04:17;12.40;99.90
39889;DHT22;25563;50.844;4.308;2024-02-28T11:06:54;12.60;99.90
39889;DHT22;25563;50.844;4.308;2024-02-28T11:09:28;12.60;99.90
39889;DHT22;25563;50.844;4.308;2024-02-28T11:11:56;12.70;99.90
39889;DHT22;25563;50.844;4.308;2024-02-28T11:14:22;12.70;99.90
39889;DHT22;25563;50.844;4.308;2024-02-28T11:17:03;12.60;99.90
39889;DHT22;25563;50.844;4.308;2024-02-28T11:19:32;12.50;99.90
39889;DHT22;25563;50.844;4.308;2024-02-28T11:22:01;12.50;99.90
39889;DHT22;25563;50.844;4.308;2024-02-28T11:24:33;12.60;99.90
39889;DHT22;25563;50.844;4.308;2024-02-28T11:27:00;12.80;99.90
39889;DHT22;25563;50.844;4.308;2024-02-28T11:29:28;12.90;99.90
39889;DHT22;25563;50.844;4.308;2024-02-28T11:31:55;12.80;99.90
39889;DHT22;25563;50.844;4.308;2024-02-28T11:34:21;12.70;99.90
39889;DHT22;25563;50.844;4.308;2024-02-28T11:36:51;12.80;99.90
39889;DHT22;25563;50.844;4.308;2024-02-28T11:39:18;12.90;99.90
39889;DHT22;25563;50.844;4.308;2024-02-28T11:41:45;13.00;99.90
39889;DHT22;25563;50.844;4.308;2024-02-28T11:44:16;13.00;99.90
39889;DHT22;25563;50.844;4.308;2024-02-28T11:46:46;13.00;99.90
39889;DHT22;25563;50.844;4.308;2024-02-28T11:49:17;13.30;99.30
39889;DHT22;25563;50.844;4.308;2024-02-28T11:51:46;13.40;98.90
39889;DHT22;25563;50.844;4.308;2024-02-28T11:54:12;13.60;98.60
39889;DHT22;25563;50.844;4.308;2024-02-28T11:56:39;13.50;98.70
39889;DHT22;25563;50.844;4.308;2024-02-28T11:59:05;13.60;98.40
39889;DHT22;25563;50.844;4.308;2024-02-28T12:01:38;13.70;98.30
39889;DHT22;25563;50.844;4.308;2024-02-28T12:04:07;13.90;98.10
39889;DHT22;25563;50.844;4.308;2024-02-28T12:06:37;14.30;97.90
39889;DHT22;25563;50.844;4.308;2024-02-28T12:09:04;14.60;97.10
39889;DHT22;25563;50.844;4.308;2024-02-28T12:11:30;14.90;96.70
39889;DHT22;25563;50.844;4.308;2024-02-28T12:13:57;15.00;96.50
39889;DHT22;25563;50.844;4.308;2024-02-28T12:16:25;15.00;96.30
39889;DHT22;25563;50.844;4.308;2024-02-28T12:18:53;15.10;96.30
39889;DHT22;25563;50.844;4.308;2024-02-28T12:21:19;15.20;96.20
39889;DHT22;25563;50.844;4.308;2024-02-28T12:23:47;15.40;95.60
39889;DHT22;25563;50.844;4.308;2024-02-28T12:26:17;15.40;95.60
39889;DHT22;25563;50.844;4.308;2024-02-28T12:28:46;15.20;95.50
39889;DHT22;25563;50.844;4.308;2024-02-28T12:31:12;15.00;95.90
39889;DHT22;25563;50.844;4.308;2024-02-28T12:33:39;14.80;96.20
39889;DHT22;25563;50.844;4.308;2024-02-28T12:36:05;14.70;96.10
39889;DHT22;25563;50.844;4.308;2024-02-28T12:38:31;14.70;96.30
39889;DHT22;25563;50.844;4.308;2024-02-28T12:40:57;14.70;96.10
39889;DHT22;25563;50.844;4.308;2024-02-28T12:43:24;14.60;96.00
39889;DHT22;25563;50.844;4.308;2024-02-28T12:45:52;14.60;96.10
39889;DHT22;25563;50.844;4.308;2024-02-28T12:48:20;14.40;96.30
39889;DHT22;25563;50.844;4.308;2024-02-28T12:50:45;14.20;96.70
39889;DHT22;25563;50.844;4.308;2024-02-28T12:53:11;14.20;96.90
39889;DHT22;25563;50.844;4.308;2024-02-28T12:55:37;14.00;97.20
39889;DHT22;25563;50.844;4.308;2024-02-28T12:58:04;13.90;97.10
39889;DHT22;25563;50.844;4.308;2024-02-28T13:00:31;13.80;97.40
39889;DHT22;25563;50.844;4.308;2024-02-28T13:02:58;13.90;97.40
39889;DHT22;25563;50.844;4.308;2024-02-28T13:05:23;13.80;97.20
39889;DHT22;25563;50.844;4.308;2024-02-28T13:07:49;13.80;97.40
39889;DHT22;25563;50.844;4.308;2024-02-28T13:10:15;13.80;97.20
39889;DHT22;25563;50.844;4.308;2024-02-28T13:12:41;13.80;97.30
39889;DHT22;25563;50.844;4.308;2024-02-28T13:15:07;13.80;97.10
39889;DHT22;25563;50.844;4.308;2024-02-28T13:17:33;13.60;97.40
39889;DHT22;25563;50.844;4.308;2024-02-28T13:20:00;13.50;97.60
39889;DHT22;25563;50.844;4.308;2024-02-28T13:22:28;13.40;97.80
39889;DHT22;25563;50.844;4.308;2024-02-28T13:24:53;13.40;97.80
39889;DHT22;25563;50.844;4.308;2024-02-28T13:27:20;13.50;98.00
39889;DHT22;25563;50.844;4.308;2024-02-28T13:29:46;13.70;97.70
39889;DHT22;25563;50.844;4.308;2024-02-28T13:32:12;13.60;97.40
39889;DHT22;25563;50.844;4.308;2024-02-28T13:34:39;13.50;97.80
39889;DHT22;25563;50.844;4.308;2024-02-28T13:37:08;13.50;97.60
39889;DHT22;25563;50.844;4.308;2024-02-28T13:39:34;13.70;97.30
39889;DHT22;25563;50.844;4.308;2024-02-28T13:42:00;13.80;97.20
39889;DHT22;25563;50.844;4.308;2024-02-28T13:44:26;13.70;97.30
39889;DHT22;25563;50.844;4.308;2024-02-28T13:46:53;13.70;97.30
39889;DHT22;25563;50.844;4.308;2024-02-28T13:49:20;13.70;97.30
39889;DHT22;25563;50.844;4.308;2024-02-28T13:51:46;13.70;97.40
39889;DHT22;25563;50.844;4.308;2024-02-28T13:54:15;13.80;97.10
39889;DHT22;25563;50.844;4.308;2024-02-28T13:56:41;14.10;96.80
39889;DHT22;25563;50.844;4.308;2024-02-28T13:59:06;14.10;96.60
39889;DHT22;25563;50.844;4.308;2024-02-28T14:01:32;14.00;96.70
39889;DHT22;25563;50.844;4.308;2024-02-28T14:03:59;14.00;97.00
39889;DHT22;25563;50.844;4.308;2024-02-28T14:06:25;13.90;96.90
39889;DHT22;25563;50.844;4.308;2024-02-28T14:08:50;13.80;97.00
39889;DHT22;25563;50.844;4.308;2024-02-28T14:11:18;13.70;97.00
39889;DHT22;25563;50.844;4.308;2024-02-28T14:13:46;13.80;97.10
39889;DHT22;25563;50.844;4.308;2024-02-28T14:16:12;13.70;97.20
39889;DHT22;25563;50.844;4.308;2024-02-28T14:18:40;13.70;97.50
39889;DHT22;25563;50.844;4.308;2024-02-28T14:21:09;13.90;97.10
39889;DHT22;25563;50.844;4.308;2024-02-28T14:23:35;13.80;97.10
39889;DHT22;25563;50.844;4.308;2024-02-28T14:26:00;13.50;97.30
39889;DHT22;25563;50.844;4.308;2024-02-28T14:28:27;13.40;97.60
39889;DHT22;25563;50.844;4.308;2024-02-28T14:30:53;13.40;97.70
39889;DHT22;25563;50.844;4.308;2024-02-28T14:33:19;13.50;97.70
39889;DHT22;25563;50.844;4.308;2024-02-28T14:35:44;13.60;97.50
39889;DHT22;25563;50.844;4.308;2024-02-28T14:38:10;13.60;97.50
39889;DHT22;25563;50.844;4.308;2024-02-28T14:40:36;13.80;97.20
39889;DHT22;25563;50.844;4.308;2024-02-28T14:43:02;13.90;96.90
39889;DHT22;25563;50.844;4.308;2024-02-28T14:45:30;13.80;96.90
39889;DHT22;25563;50.844;4.308;2024-02-28T14:47:57;13.70;97.30
39889;DHT22;25563;50.844;4.308;2024-02-28T14:50:23;13.70;97.20
39889;DHT22;25563;50.844;4.308;2024-02-28T14:52:49;13.80;97.20
39889;DHT22;25563;50.844;4.308;2024-02-28T14:55:15;13.90;97.00
39889;DHT22;25563;50.844;4.308;2024-02-28T14:57:42;14.10;96.70
39889;DHT22;25563;50.844;4.308;2024-02-28T15:00:09;13.90;96.70
39889;DHT22;25563;50.844;4.308;2024-02-28T15:02:40;13.80;97.00
39889;DHT22;25563;50.844;4.308;2024-02-28T15:05:06;13.90;96.80
39889;DHT22;25563;50.844;4.308;2024-02-28T15:07:35;13.90;96.80
39889;DHT22;25563;50.844;4.308;2024-02-28T15:10:02;13.90;96.70
39889;DHT22;25563;50.844;4.308;2024-02-28T15:12:31;13.90;96.80
39889;DHT22;25563;50.844;4.308;2024-02-28T15:15:02;13.90;96.70
39889;DHT22;25563;50.844;4.308;2024-02-28T15:17:30;13.80;97.00
39889;DHT22;25563;50.844;4.308;2024-02-28T15:19:56;14.10;96.80
39889;DHT22;25563;50.844;4.308;2024-02-28T15:22:22;14.00;96.70
39889;DHT22;25563;50.844;4.308;2024-02-28T15:24:48;14.20;96.50
39889;DHT22;25563;50.844;4.308;2024-02-28T15:27:14;14.30;96.20
39889;DHT22;25563;50.844;4.308;2024-02-28T15:29:41;14.30;96.10
39889;DHT22;25563;50.844;4.308;2024-02-28T15:32:08;14.20;95.90
39889;DHT22;25563;50.844;4.308;2024-02-28T15:34:34;14.10;96.00
39889;DHT22;25563;50.844;4.308;2024-02-28T15:37:00;14.00;96.00
39889;DHT22;25563;50.844;4.308;2024-02-28T15:39:27;13.80;96.10
39889;DHT22;25563;50.844;4.308;2024-02-28T15:41:55;13.80;96.20
39889;DHT22;25563;50.844;4.308;2024-02-28T15:44:20;13.50;96.70